createdAt,value
2017-08-15T00:00:03.572Z,16.18
2017-08-15T00:00:07.694Z,16.18
2017-08-15T00:00:11.928Z,16.18
2017-08-15T00:00:16.178Z,16.18
2017-08-15T00:00:20.636Z,16.18
2017-08-15T00:00:24.970Z,16.19
2017-08-15T00:00:29.214Z,16.18
2017-08-15T00:00:33.553Z,16.18
2017-08-15T00:00:38.024Z,16.19
2017-08-15T00:00:42.472Z,16.18
2017-08-15T00:00:46.948Z,16.17
2017-08-15T00:00:51.320Z,16.17
2017-08-15T00:00:55.779Z,16.18
2017-08-15T00:01:00.125Z,16.18
2017-08-15T00:01:04.723Z,16.18
2017-08-15T00:01:09.065Z,16.18
2017-08-15T00:01:13.533Z,16.18
2017-08-15T00:01:17.998Z,16.17
2017-08-15T00:01:22.366Z,16.18
2017-08-15T00:01:26.742Z,16.18
2017-08-15T00:01:31.205Z,16.18
2017-08-15T00:01:35.539Z,16.17
2017-08-15T00:01:39.881Z,16.18
2017-08-15T00:01:44.350Z,16.17
2017-08-15T00:01:48.694Z,16.17
2017-08-15T00:01:52.936Z,16.17
2017-08-15T00:01:57.385Z,16.17
2017-08-15T00:02:02.049Z,16.17
2017-08-15T00:02:06.393Z,16.16
2017-08-15T00:02:10.913Z,16.17
2017-08-15T00:02:15.381Z,16.17
2017-08-15T00:02:19.842Z,16.17
2017-08-15T00:02:24.198Z,16.17
2017-08-15T00:02:28.682Z,16.16
2017-08-15T00:02:33.024Z,16.17
2017-08-15T00:02:37.252Z,16.16
2017-08-15T00:02:41.590Z,16.16
2017-08-15T00:02:45.922Z,16.17
2017-08-15T00:02:50.391Z,16.16
2017-08-15T00:02:54.513Z,16.15
2017-08-15T00:02:58.977Z,16.15
2017-08-15T00:03:03.469Z,16.16
2017-08-15T00:03:07.920Z,16.15
2017-08-15T00:03:12.257Z,16.15
2017-08-15T00:03:16.716Z,16.16
2017-08-15T00:03:21.179Z,16.15
2017-08-15T00:03:25.276Z,16.15
2017-08-15T00:03:29.619Z,16.15
2017-08-15T00:03:33.863Z,16.14
2017-08-15T00:03:38.342Z,16.15
2017-08-15T00:03:42.802Z,16.15
2017-08-15T00:03:47.159Z,16.15
2017-08-15T00:03:51.625Z,16.14
2017-08-15T00:03:56.109Z,16.14
2017-08-15T00:04:00.568Z,16.14
2017-08-15T00:04:05.015Z,16.13
2017-08-15T00:04:09.500Z,16.13
2017-08-15T00:04:13.841Z,16.13
2017-08-15T00:04:18.428Z,16.14
2017-08-15T00:04:22.662Z,16.13
2017-08-15T00:04:27.023Z,16.13
2017-08-15T00:04:31.476Z,16.13
2017-08-15T00:04:35.818Z,16.12
2017-08-15T00:04:40.297Z,16.12
2017-08-15T00:04:44.769Z,16.12
2017-08-15T00:04:48.998Z,16.13
2017-08-15T00:04:53.236Z,16.12
2017-08-15T00:04:57.714Z,16.12
2017-08-15T00:05:02.188Z,16.12
2017-08-15T00:05:06.536Z,16.12
2017-08-15T00:05:10.998Z,16.11
2017-08-15T00:05:15.229Z,16.11
2017-08-15T00:05:19.687Z,16.11
2017-08-15T00:05:24.039Z,16.1
2017-08-15T00:05:28.164Z,16.1
2017-08-15T00:05:32.506Z,16.1
2017-08-15T00:05:36.863Z,16.09
2017-08-15T00:05:41.342Z,16.09
2017-08-15T00:05:45.800Z,16.09
2017-08-15T00:05:50.028Z,16.09
2017-08-15T00:05:54.251Z,16.08
2017-08-15T00:05:58.710Z,16.09
2017-08-15T00:06:03.079Z,16.08
2017-08-15T00:06:07.305Z,16.09
2017-08-15T00:06:11.766Z,16.08
2017-08-15T00:06:16.110Z,16.08
2017-08-15T00:06:20.601Z,16.07
2017-08-15T00:06:25.071Z,16.07
2017-08-15T00:06:29.521Z,16.07
2017-08-15T00:06:33.865Z,16.07
2017-08-15T00:06:38.349Z,16.06
2017-08-15T00:06:42.822Z,16.06
2017-08-15T00:06:47.291Z,16.06
2017-08-15T00:06:51.760Z,16.06
2017-08-15T00:06:55.974Z,16.05
2017-08-15T00:07:00.444Z,16.05
2017-08-15T00:07:05.053Z,16.04
2017-08-15T00:07:09.530Z,16.05
2017-08-15T00:07:13.762Z,16.04
2017-08-15T00:07:18.216Z,16.04
2017-08-15T00:07:22.553Z,16.03
2017-08-15T00:07:26.902Z,16.03
2017-08-15T00:07:31.244Z,16.03
2017-08-15T00:07:35.712Z,16.03
2017-08-15T00:07:40.055Z,16.03
2017-08-15T00:07:44.519Z,16.01
2017-08-15T00:07:48.990Z,16.02
2017-08-15T00:07:53.100Z,16.02
2017-08-15T00:07:57.561Z,16.01
2017-08-15T00:08:02.024Z,16.01
2017-08-15T00:08:06.478Z,16
2017-08-15T00:08:10.812Z,16
2017-08-15T00:08:15.161Z,16
2017-08-15T00:08:19.405Z,16
2017-08-15T00:08:23.868Z,16
2017-08-15T00:08:28.320Z,15.99
2017-08-15T00:08:32.552Z,15.98
2017-08-15T00:08:37.010Z,15.98
2017-08-15T00:08:41.466Z,15.98
2017-08-15T00:08:45.917Z,15.97
2017-08-15T00:08:50.397Z,15.97
2017-08-15T00:08:54.754Z,15.96
2017-08-15T00:08:58.974Z,15.96
2017-08-15T00:09:03.726Z,15.96
2017-08-15T00:09:08.073Z,15.97
2017-08-15T00:09:12.293Z,15.95
2017-08-15T00:09:16.630Z,15.95
2017-08-15T00:09:21.089Z,15.94
2017-08-15T00:09:25.557Z,15.94
2017-08-15T00:09:29.923Z,15.94
2017-08-15T00:09:34.012Z,15.94
2017-08-15T00:09:38.469Z,15.93
2017-08-15T00:09:42.927Z,15.93
2017-08-15T00:09:47.398Z,15.93
2017-08-15T00:09:51.740Z,15.92
2017-08-15T00:09:56.092Z,15.92
2017-08-15T00:10:00.549Z,15.92
2017-08-15T00:10:04.917Z,15.91
2017-08-15T00:10:09.169Z,15.91
2017-08-15T00:10:13.504Z,15.91
2017-08-15T00:10:17.957Z,15.9
2017-08-15T00:10:22.185Z,15.89
2017-08-15T00:10:26.644Z,15.9
2017-08-15T00:10:30.999Z,15.89
2017-08-15T00:10:35.353Z,15.89
2017-08-15T00:10:39.812Z,15.88
2017-08-15T00:10:44.280Z,15.88
2017-08-15T00:10:48.742Z,15.88
2017-08-15T00:10:53.229Z,15.86
2017-08-15T00:10:57.568Z,15.87
2017-08-15T00:11:02.025Z,15.86
2017-08-15T00:11:06.495Z,15.86
2017-08-15T00:11:10.979Z,15.86
2017-08-15T00:11:15.444Z,15.86
2017-08-15T00:11:19.678Z,15.86
2017-08-15T00:11:24.031Z,15.85
2017-08-15T00:11:28.147Z,15.85
2017-08-15T00:11:32.374Z,15.84
2017-08-15T00:11:36.727Z,15.84
2017-08-15T00:11:41.206Z,15.84
2017-08-15T00:11:45.665Z,15.83
2017-08-15T00:11:50.015Z,15.84
2017-08-15T00:11:54.383Z,15.83
2017-08-15T00:11:58.739Z,15.82
2017-08-15T00:12:03.088Z,15.82
2017-08-15T00:12:07.550Z,15.81
2017-08-15T00:12:12.024Z,15.81
2017-08-15T00:12:16.393Z,15.81
2017-08-15T00:12:20.736Z,15.8
2017-08-15T00:12:25.191Z,15.8
2017-08-15T00:12:29.657Z,15.8
2017-08-15T00:12:33.891Z,15.79
2017-08-15T00:12:38.350Z,15.8
2017-08-15T00:12:42.708Z,15.78
2017-08-15T00:12:47.194Z,15.78
2017-08-15T00:12:51.641Z,15.78
2017-08-15T00:12:55.998Z,15.77
2017-08-15T00:13:00.456Z,15.76
2017-08-15T00:13:04.906Z,15.76
2017-08-15T00:13:09.383Z,15.76
2017-08-15T00:13:13.748Z,15.75
2017-08-15T00:13:18.078Z,15.75
2017-08-15T00:13:22.185Z,15.74
2017-08-15T00:13:26.655Z,15.74
2017-08-15T00:13:30.884Z,15.74
2017-08-15T00:13:35.238Z,15.73
2017-08-15T00:13:39.728Z,15.73
2017-08-15T00:13:44.089Z,15.73
2017-08-15T00:13:48.297Z,15.72
2017-08-15T00:13:52.740Z,15.73
2017-08-15T00:13:57.089Z,15.72
2017-08-15T00:14:01.308Z,15.71
2017-08-15T00:14:05.890Z,15.72
2017-08-15T00:14:10.340Z,15.71
2017-08-15T00:14:14.696Z,15.71
2017-08-15T00:14:19.052Z,15.7
2017-08-15T00:14:23.277Z,15.71
2017-08-15T00:14:27.500Z,15.7
2017-08-15T00:14:31.613Z,15.7
2017-08-15T00:14:36.069Z,15.7
2017-08-15T00:14:40.419Z,15.69
2017-08-15T00:14:44.778Z,15.68
2017-08-15T00:14:48.905Z,15.68
2017-08-15T00:14:53.122Z,15.68
2017-08-15T00:14:57.471Z,15.67
2017-08-15T00:15:01.984Z,15.68
2017-08-15T00:15:06.350Z,15.68
2017-08-15T00:15:10.697Z,15.68
2017-08-15T00:15:15.159Z,15.67
2017-08-15T00:15:19.628Z,15.67
2017-08-15T00:15:23.853Z,15.67
2017-08-15T00:15:28.324Z,15.66
2017-08-15T00:15:32.791Z,15.66
2017-08-15T00:15:37.019Z,15.66
2017-08-15T00:15:41.372Z,15.65
2017-08-15T00:15:45.852Z,15.65
2017-08-15T00:15:50.324Z,15.64
2017-08-15T00:15:54.541Z,15.64
2017-08-15T00:15:59.007Z,15.64
2017-08-15T00:16:03.483Z,15.64
2017-08-15T00:16:07.962Z,15.64
2017-08-15T00:16:12.173Z,15.63
2017-08-15T00:16:16.515Z,15.63
2017-08-15T00:16:20.866Z,15.63
2017-08-15T00:16:25.335Z,15.62
2017-08-15T00:16:29.558Z,15.62
2017-08-15T00:16:33.888Z,15.62
2017-08-15T00:16:38.116Z,15.62
2017-08-15T00:16:42.583Z,15.61
2017-08-15T00:16:46.924Z,15.62
2017-08-15T00:16:51.271Z,15.62
2017-08-15T00:16:55.729Z,15.62
2017-08-15T00:17:00.069Z,15.61
2017-08-15T00:17:04.526Z,15.61
2017-08-15T00:17:09.001Z,15.61
2017-08-15T00:17:13.341Z,15.61
2017-08-15T00:17:17.802Z,15.61
2017-08-15T00:17:22.037Z,15.61
2017-08-15T00:17:26.256Z,15.61
2017-08-15T00:17:30.752Z,15.61
2017-08-15T00:17:35.209Z,15.6
2017-08-15T00:17:39.673Z,15.6
2017-08-15T00:17:44.126Z,15.6
2017-08-15T00:17:48.347Z,15.6
2017-08-15T00:17:52.800Z,15.6
2017-08-15T00:17:57.145Z,15.6
2017-08-15T00:18:01.619Z,15.6
2017-08-15T00:18:06.165Z,15.59
2017-08-15T00:18:10.516Z,15.59
2017-08-15T00:18:14.867Z,15.6
2017-08-15T00:18:19.329Z,15.6
2017-08-15T00:18:23.573Z,15.59
2017-08-15T00:18:27.906Z,15.6
2017-08-15T00:18:32.369Z,15.59
2017-08-15T00:18:36.830Z,15.59
2017-08-15T00:18:41.189Z,15.6
2017-08-15T00:18:45.522Z,15.58
2017-08-15T00:18:49.617Z,15.59
2017-08-15T00:18:54.081Z,15.58
2017-08-15T00:18:58.322Z,15.58
2017-08-15T00:19:02.658Z,15.59
2017-08-15T00:19:07.123Z,15.59
2017-08-15T00:19:11.469Z,15.59
2017-08-15T00:19:15.807Z,15.59
2017-08-15T00:19:20.263Z,15.58
2017-08-15T00:19:24.487Z,15.57
2017-08-15T00:19:28.988Z,15.57
2017-08-15T00:19:33.450Z,15.58
2017-08-15T00:19:37.908Z,15.57
2017-08-15T00:19:42.374Z,15.57
2017-08-15T00:19:46.855Z,15.58
2017-08-15T00:19:51.203Z,15.58
2017-08-15T00:19:55.307Z,15.57
2017-08-15T00:19:59.772Z,15.56
2017-08-15T00:20:04.274Z,15.57
2017-08-15T00:20:08.682Z,15.57
2017-08-15T00:20:13.032Z,15.57
2017-08-15T00:20:17.495Z,15.57
2017-08-15T00:20:21.945Z,15.57
2017-08-15T00:20:26.168Z,15.57
2017-08-15T00:20:30.387Z,15.57
2017-08-15T00:20:34.738Z,15.57
2017-08-15T00:20:39.085Z,15.56
2017-08-15T00:20:43.558Z,15.56
2017-08-15T00:20:47.919Z,15.56
2017-08-15T00:20:52.388Z,15.56
2017-08-15T00:20:56.717Z,15.56
2017-08-15T00:21:01.181Z,15.56
2017-08-15T00:21:05.659Z,15.55
2017-08-15T00:21:10.122Z,15.56
2017-08-15T00:21:14.345Z,15.56
2017-08-15T00:21:18.799Z,15.55
2017-08-15T00:21:23.288Z,15.55
2017-08-15T00:21:27.645Z,15.55
2017-08-15T00:21:32.110Z,15.55
2017-08-15T00:21:36.470Z,15.55
2017-08-15T00:21:40.948Z,15.55
2017-08-15T00:21:45.415Z,15.54
2017-08-15T00:21:49.750Z,15.54
2017-08-15T00:21:54.199Z,15.55
2017-08-15T00:21:58.425Z,15.55
2017-08-15T00:22:02.912Z,15.53
2017-08-15T00:22:07.263Z,15.54
2017-08-15T00:22:11.490Z,15.54
2017-08-15T00:22:15.607Z,15.54
2017-08-15T00:22:19.943Z,15.54
2017-08-15T00:22:24.399Z,15.53
2017-08-15T00:22:28.620Z,15.53
2017-08-15T00:22:33.109Z,15.53
2017-08-15T00:22:37.570Z,15.53
2017-08-15T00:22:42.025Z,15.53
2017-08-15T00:22:46.399Z,15.53
2017-08-15T00:22:50.618Z,15.52
2017-08-15T00:22:55.087Z,15.52
2017-08-15T00:22:59.451Z,15.53
2017-08-15T00:23:03.925Z,15.52
2017-08-15T00:23:08.185Z,15.52
2017-08-15T00:23:12.527Z,15.52
2017-08-15T00:23:16.994Z,15.51
2017-08-15T00:23:21.454Z,15.51
2017-08-15T00:23:25.694Z,15.51
2017-08-15T00:23:29.927Z,15.51
2017-08-15T00:23:34.375Z,15.5
2017-08-15T00:23:38.837Z,15.51
2017-08-15T00:23:43.284Z,15.5
2017-08-15T00:23:47.483Z,15.51
2017-08-15T00:23:51.706Z,15.5
2017-08-15T00:23:56.065Z,15.5
2017-08-15T00:24:00.558Z,15.5
2017-08-15T00:24:05.016Z,15.5
2017-08-15T00:24:09.469Z,15.49
2017-08-15T00:24:13.920Z,15.5
2017-08-15T00:24:18.269Z,15.5
2017-08-15T00:24:22.483Z,15.5
2017-08-15T00:24:26.929Z,15.5
2017-08-15T00:24:30.937Z,15.49
2017-08-15T00:24:35.280Z,15.49
2017-08-15T00:24:39.726Z,15.49
2017-08-15T00:24:44.191Z,15.49
2017-08-15T00:24:48.549Z,15.48
2017-08-15T00:24:52.765Z,15.49
2017-08-15T00:24:57.110Z,15.49
2017-08-15T00:25:01.816Z,15.48
2017-08-15T00:25:06.150Z,15.48
2017-08-15T00:25:10.606Z,15.48
2017-08-15T00:25:15.070Z,15.48
2017-08-15T00:25:19.417Z,15.48
2017-08-15T00:25:23.870Z,15.48
2017-08-15T00:25:28.317Z,15.48
2017-08-15T00:25:32.647Z,15.46
2017-08-15T00:25:36.881Z,15.48
2017-08-15T00:25:41.363Z,15.47
2017-08-15T00:25:45.818Z,15.47
2017-08-15T00:25:50.276Z,15.47
2017-08-15T00:25:54.734Z,15.47
2017-08-15T00:25:59.200Z,15.47
2017-08-15T00:26:03.954Z,15.47
2017-08-15T00:26:08.302Z,15.46
2017-08-15T00:26:12.770Z,15.47
2017-08-15T00:26:17.005Z,15.46
2017-08-15T00:26:21.458Z,15.45
2017-08-15T00:26:25.797Z,15.46
2017-08-15T00:26:30.026Z,15.47
2017-08-15T00:26:34.252Z,15.46
2017-08-15T00:26:38.468Z,15.45
2017-08-15T00:26:42.932Z,15.46
2017-08-15T00:26:47.288Z,15.46
2017-08-15T00:26:51.745Z,15.46
2017-08-15T00:26:55.974Z,15.46
2017-08-15T00:27:00.438Z,15.45
2017-08-15T00:27:05.213Z,15.45
2017-08-15T00:27:09.684Z,15.45
2017-08-15T00:27:14.022Z,15.45
2017-08-15T00:27:18.486Z,15.44
2017-08-15T00:27:22.833Z,15.44
2017-08-15T00:27:27.061Z,15.45
2017-08-15T00:27:31.286Z,15.45
2017-08-15T00:27:35.757Z,15.44
2017-08-15T00:27:40.101Z,15.44
2017-08-15T00:27:44.575Z,15.43
2017-08-15T00:27:48.808Z,15.44
2017-08-15T00:27:53.078Z,15.43
2017-08-15T00:27:57.540Z,15.44
2017-08-15T00:28:01.990Z,15.44
2017-08-15T00:28:06.213Z,15.43
2017-08-15T00:28:10.564Z,15.43
2017-08-15T00:28:14.910Z,15.43
2017-08-15T00:28:19.351Z,15.43
2017-08-15T00:28:23.454Z,15.43
2017-08-15T00:28:27.811Z,15.43
2017-08-15T00:28:32.277Z,15.43
2017-08-15T00:28:36.738Z,15.42
2017-08-15T00:28:41.198Z,15.42
2017-08-15T00:28:45.684Z,15.42
2017-08-15T00:28:50.029Z,15.42
2017-08-15T00:28:54.010Z,15.42
2017-08-15T00:28:58.352Z,15.41
2017-08-15T00:29:03.032Z,15.42
2017-08-15T00:29:07.374Z,15.42
2017-08-15T00:29:11.840Z,15.41
2017-08-15T00:29:16.217Z,15.41
2017-08-15T00:29:20.683Z,15.41
2017-08-15T00:29:25.145Z,15.41
2017-08-15T00:29:29.494Z,15.41
2017-08-15T00:29:33.838Z,15.41
2017-08-15T00:29:38.306Z,15.4
2017-08-15T00:29:42.773Z,15.4
2017-08-15T00:29:47.112Z,15.4
2017-08-15T00:29:51.329Z,15.4
2017-08-15T00:29:55.787Z,15.4
2017-08-15T00:30:00.236Z,15.39
2017-08-15T00:30:04.612Z,15.39
2017-08-15T00:30:08.897Z,15.39
2017-08-15T00:30:13.125Z,15.39
2017-08-15T00:30:17.586Z,15.39
2017-08-15T00:30:22.035Z,15.39
2017-08-15T00:30:26.499Z,15.4
2017-08-15T00:30:30.619Z,15.39
2017-08-15T00:30:34.835Z,15.39
2017-08-15T00:30:39.295Z,15.39
2017-08-15T00:30:43.747Z,15.39
2017-08-15T00:30:48.226Z,15.38
2017-08-15T00:30:52.682Z,15.39
2017-08-15T00:30:56.910Z,15.38
2017-08-15T00:31:01.269Z,15.38
2017-08-15T00:31:05.750Z,15.37
2017-08-15T00:31:10.217Z,15.37
2017-08-15T00:31:14.569Z,15.38
2017-08-15T00:31:18.925Z,15.38
2017-08-15T00:31:23.271Z,15.38
2017-08-15T00:31:27.615Z,15.37
2017-08-15T00:31:32.088Z,15.37
2017-08-15T00:31:36.442Z,15.38
2017-08-15T00:31:40.909Z,15.37
2017-08-15T00:31:45.367Z,15.37
2017-08-15T00:31:49.594Z,15.37
2017-08-15T00:31:53.699Z,15.37
2017-08-15T00:31:58.149Z,15.37
2017-08-15T00:32:02.594Z,15.37
2017-08-15T00:32:06.699Z,15.37
2017-08-15T00:32:11.040Z,15.37
2017-08-15T00:32:15.383Z,15.37
2017-08-15T00:32:19.736Z,15.37
2017-08-15T00:32:23.956Z,15.37
2017-08-15T00:32:28.292Z,15.37
2017-08-15T00:32:32.512Z,15.36
2017-08-15T00:32:36.838Z,15.37
2017-08-15T00:32:41.280Z,15.37
2017-08-15T00:32:45.743Z,15.36
2017-08-15T00:32:50.097Z,15.37
2017-08-15T00:32:54.217Z,15.36
2017-08-15T00:32:58.575Z,15.37
2017-08-15T00:33:03.052Z,15.36
2017-08-15T00:33:07.514Z,15.36
2017-08-15T00:33:11.988Z,15.36
2017-08-15T00:33:16.325Z,15.37
2017-08-15T00:33:20.670Z,15.36
2017-08-15T00:33:25.126Z,15.36
2017-08-15T00:33:29.334Z,15.36
2017-08-15T00:33:33.789Z,15.37
2017-08-15T00:33:38.128Z,15.37
2017-08-15T00:33:42.465Z,15.36
2017-08-15T00:33:46.579Z,15.35
2017-08-15T00:33:51.040Z,15.36
2017-08-15T00:33:55.030Z,15.36
2017-08-15T00:33:59.479Z,15.35
2017-08-15T00:34:04.087Z,15.36
2017-08-15T00:34:08.436Z,15.36
2017-08-15T00:34:12.795Z,15.35
2017-08-15T00:34:17.254Z,15.36
2017-08-15T00:34:21.983Z,15.35
2017-08-15T00:34:26.320Z,15.35
2017-08-15T00:34:30.777Z,15.36
2017-08-15T00:34:34.996Z,15.35
2017-08-15T00:34:39.346Z,15.35
2017-08-15T00:34:43.831Z,15.35
2017-08-15T00:34:48.297Z,15.35
2017-08-15T00:34:52.646Z,15.35
2017-08-15T00:34:56.880Z,15.35
2017-08-15T00:35:01.336Z,15.35
2017-08-15T00:35:05.688Z,15.34
2017-08-15T00:35:10.033Z,15.35
2017-08-15T00:35:14.367Z,15.34
2017-08-15T00:35:18.829Z,15.35
2017-08-15T00:35:22.811Z,15.34
2017-08-15T00:35:27.274Z,15.34
2017-08-15T00:35:31.627Z,15.35
2017-08-15T00:35:35.975Z,15.33
2017-08-15T00:35:40.318Z,15.34
2017-08-15T00:35:44.661Z,15.34
2017-08-15T00:35:49.125Z,15.33
2017-08-15T00:35:53.469Z,15.33
2017-08-15T00:35:57.697Z,15.33
2017-08-15T00:36:02.165Z,15.33
2017-08-15T00:36:06.645Z,15.33
2017-08-15T00:36:10.629Z,15.32
2017-08-15T00:36:14.986Z,15.33
2017-08-15T00:36:19.456Z,15.33
2017-08-15T00:36:23.922Z,15.32
2017-08-15T00:36:28.255Z,15.33
2017-08-15T00:36:32.719Z,15.33
2017-08-15T00:36:37.194Z,15.32
2017-08-15T00:36:41.650Z,15.32
2017-08-15T00:36:46.110Z,15.32
2017-08-15T00:36:50.466Z,15.32
2017-08-15T00:36:54.919Z,15.32
2017-08-15T00:36:59.141Z,15.32
2017-08-15T00:37:03.488Z,15.31
2017-08-15T00:37:07.832Z,15.31
2017-08-15T00:37:12.062Z,15.31
2017-08-15T00:37:16.399Z,15.31
2017-08-15T00:37:20.858Z,15.31
2017-08-15T00:37:25.217Z,15.3
2017-08-15T00:37:29.677Z,15.3
2017-08-15T00:37:34.142Z,15.29
2017-08-15T00:37:38.590Z,15.3
2017-08-15T00:37:42.938Z,15.3
2017-08-15T00:37:47.044Z,15.3
2017-08-15T00:37:51.263Z,15.29
2017-08-15T00:37:55.497Z,15.3
2017-08-15T00:37:59.836Z,15.29
2017-08-15T00:38:04.393Z,15.29
2017-08-15T00:38:08.615Z,15.28
2017-08-15T00:38:12.850Z,15.29
2017-08-15T00:38:17.342Z,15.28
2017-08-15T00:38:21.806Z,15.29
2017-08-15T00:38:26.264Z,15.28
2017-08-15T00:38:30.608Z,15.28
2017-08-15T00:38:34.950Z,15.28
2017-08-15T00:38:39.442Z,15.28
2017-08-15T00:38:43.906Z,15.28
2017-08-15T00:38:48.245Z,15.27
2017-08-15T00:38:52.579Z,15.27
2017-08-15T00:38:57.044Z,15.27
2017-08-15T00:39:01.508Z,15.27
2017-08-15T00:39:06.161Z,15.27
2017-08-15T00:39:10.624Z,15.27
2017-08-15T00:39:14.953Z,15.26
2017-08-15T00:39:19.418Z,15.27
2017-08-15T00:39:23.637Z,15.26
2017-08-15T00:39:27.759Z,15.26
2017-08-15T00:39:31.990Z,15.26
2017-08-15T00:39:36.475Z,15.26
2017-08-15T00:39:40.822Z,15.26
2017-08-15T00:39:45.160Z,15.25
2017-08-15T00:39:49.514Z,15.26
2017-08-15T00:39:53.743Z,15.25
2017-08-15T00:39:58.078Z,15.25
2017-08-15T00:40:02.825Z,15.25
2017-08-15T00:40:07.173Z,15.25
2017-08-15T00:40:11.298Z,15.25
2017-08-15T00:40:15.664Z,15.24
2017-08-15T00:40:20.115Z,15.24
2017-08-15T00:40:24.459Z,15.24
2017-08-15T00:40:28.657Z,15.24
2017-08-15T00:40:33.119Z,15.24
2017-08-15T00:40:37.583Z,15.24
2017-08-15T00:40:42.037Z,15.24
2017-08-15T00:40:46.378Z,15.23
2017-08-15T00:40:50.840Z,15.23
2017-08-15T00:40:55.310Z,15.23
2017-08-15T00:40:59.792Z,15.23
2017-08-15T00:41:04.141Z,15.22
2017-08-15T00:41:08.589Z,15.22
2017-08-15T00:41:12.946Z,15.23
2017-08-15T00:41:17.427Z,15.22
2017-08-15T00:41:21.771Z,15.22
2017-08-15T00:41:26.107Z,15.23
2017-08-15T00:41:30.475Z,15.22
2017-08-15T00:41:34.944Z,15.21
2017-08-15T00:41:39.406Z,15.2
2017-08-15T00:41:43.861Z,15.21
2017-08-15T00:41:48.343Z,15.21
2017-08-15T00:41:52.322Z,15.2
2017-08-15T00:41:56.667Z,15.21
2017-08-15T00:42:01.125Z,15.2
2017-08-15T00:42:05.578Z,15.19
2017-08-15T00:42:09.942Z,15.2
2017-08-15T00:42:14.407Z,15.19
2017-08-15T00:42:18.860Z,15.19
2017-08-15T00:42:23.209Z,15.18
2017-08-15T00:42:27.548Z,15.19
2017-08-15T00:42:31.999Z,15.19
2017-08-15T00:42:36.463Z,15.18
2017-08-15T00:42:40.700Z,15.17
2017-08-15T00:42:44.933Z,15.18
2017-08-15T00:42:49.399Z,15.17
2017-08-15T00:42:53.875Z,15.17
2017-08-15T00:42:58.332Z,15.16
2017-08-15T00:43:02.784Z,15.16
2017-08-15T00:43:07.248Z,15.16
2017-08-15T00:43:11.709Z,15.16
2017-08-15T00:43:16.198Z,15.16
2017-08-15T00:43:20.435Z,15.16
2017-08-15T00:43:24.660Z,15.16
2017-08-15T00:43:29.012Z,15.16
2017-08-15T00:43:33.372Z,15.15
2017-08-15T00:43:37.826Z,15.15
2017-08-15T00:43:42.162Z,15.15
2017-08-15T00:43:46.622Z,15.15
2017-08-15T00:43:50.965Z,15.15
2017-08-15T00:43:55.318Z,15.14
2017-08-15T00:43:59.790Z,15.14
2017-08-15T00:44:04.264Z,15.14
2017-08-15T00:44:08.474Z,15.14
2017-08-15T00:44:12.938Z,15.14
2017-08-15T00:44:17.283Z,15.13
2017-08-15T00:44:21.751Z,15.13
2017-08-15T00:44:26.016Z,15.13
2017-08-15T00:44:30.492Z,15.13
2017-08-15T00:44:34.965Z,15.13
2017-08-15T00:44:39.429Z,15.12
2017-08-15T00:44:43.903Z,15.13
2017-08-15T00:44:48.356Z,15.12
2017-08-15T00:44:52.730Z,15.13
2017-08-15T00:44:57.185Z,15.12
2017-08-15T00:45:01.650Z,15.12
2017-08-15T00:45:06.206Z,15.12
2017-08-15T00:45:10.684Z,15.12
2017-08-15T00:45:14.913Z,15.12
2017-08-15T00:45:19.378Z,15.11
2017-08-15T00:45:23.727Z,15.11
2017-08-15T00:45:28.076Z,15.11
2017-08-15T00:45:32.415Z,15.11
2017-08-15T00:45:36.868Z,15.11
2017-08-15T00:45:41.328Z,15.11
2017-08-15T00:45:45.792Z,15.11
2017-08-15T00:45:49.767Z,15.11
2017-08-15T00:45:53.980Z,15.11
2017-08-15T00:45:58.439Z,15.11
2017-08-15T00:46:02.915Z,15.1
2017-08-15T00:46:07.370Z,15.11
2017-08-15T00:46:11.832Z,15.11
2017-08-15T00:46:16.048Z,15.11
2017-08-15T00:46:20.284Z,15.1
2017-08-15T00:46:24.500Z,15.11
2017-08-15T00:46:28.960Z,15.11
2017-08-15T00:46:33.317Z,15.1
2017-08-15T00:46:37.789Z,15.1
2017-08-15T00:46:42.128Z,15.1
2017-08-15T00:46:46.602Z,15.1
2017-08-15T00:46:50.939Z,15.1
2017-08-15T00:46:55.045Z,15.09
2017-08-15T00:46:59.520Z,15.09
2017-08-15T00:47:04.077Z,15.1
2017-08-15T00:47:08.446Z,15.09
2017-08-15T00:47:12.905Z,15.1
2017-08-15T00:47:17.357Z,15.09
2017-08-15T00:47:21.837Z,15.09
2017-08-15T00:47:26.189Z,15.09
2017-08-15T00:47:30.306Z,15.1
2017-08-15T00:47:34.647Z,15.1
2017-08-15T00:47:39.113Z,15.1
2017-08-15T00:47:43.569Z,15.09
2017-08-15T00:47:47.927Z,15.1
2017-08-15T00:47:52.015Z,15.09
2017-08-15T00:47:56.125Z,15.1
2017-08-15T00:48:00.584Z,15.1
2017-08-15T00:48:05.100Z,15.09
2017-08-15T00:48:09.547Z,15.09
2017-08-15T00:48:14.009Z,15.09
2017-08-15T00:48:18.347Z,15.09
2017-08-15T00:48:22.806Z,15.09
2017-08-15T00:48:27.147Z,15.09
2017-08-15T00:48:31.501Z,15.09
2017-08-15T00:48:35.965Z,15.09
2017-08-15T00:48:40.427Z,15.09
2017-08-15T00:48:44.902Z,15.09
2017-08-15T00:48:49.257Z,15.08
2017-08-15T00:48:53.373Z,15.08
2017-08-15T00:48:57.834Z,15.08
2017-08-15T00:49:02.384Z,15.09
2017-08-15T00:49:06.622Z,15.08
2017-08-15T00:49:11.085Z,15.08
2017-08-15T00:49:15.539Z,15.08
2017-08-15T00:49:20.006Z,15.09
2017-08-15T00:49:24.457Z,15.08
2017-08-15T00:49:28.683Z,15.07
2017-08-15T00:49:33.021Z,15.07
2017-08-15T00:49:37.494Z,15.08
2017-08-15T00:49:41.957Z,15.08
2017-08-15T00:49:46.285Z,15.07
2017-08-15T00:49:50.512Z,15.07
2017-08-15T00:49:54.875Z,15.07
2017-08-15T00:49:59.231Z,15.07
2017-08-15T00:50:03.578Z,15.07
2017-08-15T00:50:07.919Z,15.07
2017-08-15T00:50:12.134Z,15.07
2017-08-15T00:50:16.351Z,15.06
2017-08-15T00:50:20.802Z,15.06
2017-08-15T00:50:25.151Z,15.06
2017-08-15T00:50:29.619Z,15.06
2017-08-15T00:50:33.964Z,15.06
2017-08-15T00:50:38.413Z,15.06
2017-08-15T00:50:42.757Z,15.05
2017-08-15T00:50:46.985Z,15.06
2017-08-15T00:50:51.319Z,15.05
2017-08-15T00:50:55.557Z,15.05
2017-08-15T00:51:00.030Z,15.05
2017-08-15T00:51:04.511Z,15.04
2017-08-15T00:51:08.991Z,15.05
2017-08-15T00:51:13.449Z,15.05
2017-08-15T00:51:17.909Z,15.04
2017-08-15T00:51:22.363Z,15.03
2017-08-15T00:51:26.705Z,15.04
2017-08-15T00:51:31.166Z,15.05
2017-08-15T00:51:35.504Z,15.04
2017-08-15T00:51:39.963Z,15.03
2017-08-15T00:51:44.418Z,15.04
2017-08-15T00:51:48.533Z,15.03
2017-08-15T00:51:52.885Z,15.03
2017-08-15T00:51:57.277Z,15.03
2017-08-15T00:52:01.752Z,15.02
2017-08-15T00:52:06.368Z,15.02
2017-08-15T00:52:10.822Z,15.02
2017-08-15T00:52:15.173Z,15.02
2017-08-15T00:52:19.624Z,15.01
2017-08-15T00:52:24.004Z,15.01
2017-08-15T00:52:28.472Z,15.01
2017-08-15T00:52:32.813Z,15
2017-08-15T00:52:37.287Z,15.01
2017-08-15T00:52:41.637Z,15.01
2017-08-15T00:52:46.086Z,15
2017-08-15T00:52:50.417Z,15
2017-08-15T00:52:54.652Z,15.01
2017-08-15T00:52:58.880Z,15
2017-08-15T00:53:03.696Z,15
2017-08-15T00:53:08.049Z,14.99
2017-08-15T00:53:12.282Z,15
2017-08-15T00:53:16.623Z,14.99
2017-08-15T00:53:20.970Z,14.99
2017-08-15T00:53:25.324Z,14.98
2017-08-15T00:53:29.811Z,14.98
2017-08-15T00:53:34.278Z,14.97
2017-08-15T00:53:38.743Z,14.98
2017-08-15T00:53:43.200Z,14.98
2017-08-15T00:53:47.665Z,14.97
2017-08-15T00:53:51.904Z,14.97
2017-08-15T00:53:56.022Z,14.97
2017-08-15T00:54:00.243Z,14.97
2017-08-15T00:54:04.958Z,14.97
2017-08-15T00:54:09.291Z,14.97
2017-08-15T00:54:13.405Z,14.97
2017-08-15T00:54:17.857Z,14.96
2017-08-15T00:54:22.335Z,14.96
2017-08-15T00:54:26.785Z,14.96
2017-08-15T00:54:31.233Z,14.96
2017-08-15T00:54:35.675Z,14.96
2017-08-15T00:54:40.136Z,14.95
2017-08-15T00:54:44.469Z,14.96
2017-08-15T00:54:48.702Z,14.96
2017-08-15T00:54:52.819Z,14.95
2017-08-15T00:54:57.063Z,14.95
2017-08-15T00:55:01.519Z,14.95
2017-08-15T00:55:05.969Z,14.95
2017-08-15T00:55:10.437Z,14.95
2017-08-15T00:55:14.642Z,14.95
2017-08-15T00:55:18.994Z,14.95
2017-08-15T00:55:23.229Z,14.95
2017-08-15T00:55:27.587Z,14.94
2017-08-15T00:55:32.060Z,14.95
2017-08-15T00:55:36.412Z,14.95
2017-08-15T00:55:40.884Z,14.94
2017-08-15T00:55:45.107Z,14.94
2017-08-15T00:55:49.559Z,14.95
2017-08-15T00:55:53.891Z,14.94
2017-08-15T00:55:58.119Z,14.94
2017-08-15T00:56:02.575Z,14.94
2017-08-15T00:56:06.925Z,14.93
2017-08-15T00:56:11.373Z,14.94
2017-08-15T00:56:15.717Z,14.94
2017-08-15T00:56:20.190Z,14.94
2017-08-15T00:56:24.429Z,14.93
2017-08-15T00:56:28.770Z,14.93
2017-08-15T00:56:33.121Z,14.93
2017-08-15T00:56:37.583Z,14.93